sensor_id;sensor_type;location;lat;lon;timestamp;temperature;humidity
7206;DHT22;3644;53.480;10.004;2023-03-20T00:00:06;12.00;99.90
7206;DHT22;3644;53.480;10.004;2023-03-20T00:02:34;12.00;99.90
7206;DHT22;3644;53.480;10.004;2023-03-20T00:05:00;12.00;99.90
7206;DHT22;3644;53.480;10.004;2023-03-20T00:07:25;12.00;99.90
7206;DHT22;3644;53.480;10.004;2023-03-20T00:09:51;12.00;99.90
7206;DHT22;3644;53.480;10.004;2023-03-20T00:12:22;12.00;99.90
7206;DHT22;3644;53.480;10.004;2023-03-20T00:14:48;11.90;99.90
7206;DHT22;3644;53.480;10.004;2023-03-20T00:17:17;12.00;99.90
7206;DHT22;3644;53.480;10.004;2023-03-20T00:19:44;12.00;99.90
7206;DHT22;3644;53.480;10.004;2023-03-20T00:22:10;12.00;99.90
7206;DHT22;3644;53.480;10.004;2023-03-20T00:24:36;11.90;99.90
7206;DHT22;3644;53.480;10.004;2023-03-20T00:27:02;11.90;99.90
7206;DHT22;3644;53.480;10.004;2023-03-20T00:29:30;11.90;99.90
7206;DHT22;3644;53.480;10.004;2023-03-20T00:31:57;11.90;99.90
7206;DHT22;3644;53.480;10.004;2023-03-20T00:34:25;11.80;99.90
7206;DHT22;3644;53.480;10.004;2023-03-20T00:36:52;11.90;99.90
7206;DHT22;3644;53.480;10.004;2023-03-20T00:39:18;11.90;99.90
7206;DHT22;3644;53.480;10.004;2023-03-20T00:41:55;12.00;99.90
7206;DHT22;3644;53.480;10.004;2023-03-20T00:44:35;12.00;99.90
7206;DHT22;3644;53.480;10.004;2023-03-20T00:47:09;12.00;99.90
7206;DHT22;3644;53.480;10.004;2023-03-20T00:49:35;11.90;99.90
7206;DHT22;3644;53.480;10.004;2023-03-20T00:52:04;12.00;99.90
7206;DHT22;3644;53.480;10.004;2023-03-20T00:54:30;12.10;99.90
7206;DHT22;3644;53.480;10.004;2023-03-20T00:57:02;12.10;99.90
7206;DHT22;3644;53.480;10.004;2023-03-20T00:59:32;12.10;99.90
7206;DHT22;3644;53.480;10.004;2023-03-20T01:01:59;12.10;99.90
7206;DHT22;3644;53.480;10.004;2023-03-20T01:04:30;12.10;99.90
7206;DHT22;3644;53.480;10.004;2023-03-20T01:06:57;12.10;99.90
7206;DHT22;3644;53.480;10.004;2023-03-20T01:09:23;12.00;99.90
7206;DHT22;3644;53.480;10.004;2023-03-20T01:11:48;12.00;99.90
7206;DHT22;3644;53.480;10.004;2023-03-20T01:14:14;12.00;99.90
7206;DHT22;3644;53.480;10.004;2023-03-20T01:16:41;12.00;99.90
7206;DHT22;3644;53.480;10.004;2023-03-20T01:19:12;12.00;99.90
7206;DHT22;3644;53.480;10.004;2023-03-20T01:21:38;12.00;99.90
7206;DHT22;3644;53.480;10.004;2023-03-20T01:24:04;12.00;99.90
7206;DHT22;3644;53.480;10.004;2023-03-20T01:26:41;12.00;99.90
7206;DHT22;3644;53.480;10.004;2023-03-20T01:29:23;11.80;99.90
7206;DHT22;3644;53.480;10.004;2023-03-20T01:31:50;11.90;99.90
7206;DHT22;3644;53.480;10.004;2023-03-20T01:34:16;11.90;99.90
7206;DHT22;3644;53.480;10.004;2023-03-20T01:36:48;11.90;99.90
7206;DHT22;3644;53.480;10.004;2023-03-20T01:39:14;11.80;99.90
7206;DHT22;3644;53.480;10.004;2023-03-20T01:41:41;11.80;99.90
7206;DHT22;3644;53.480;10.004;2023-03-20T01:44:18;11.80;99.90
7206;DHT22;3644;53.480;10.004;2023-03-20T01:46:44;11.80;99.90
7206;DHT22;3644;53.480;10.004;2023-03-20T01:51:49;11.80;99.90
7206;DHT22;3644;53.480;10.004;2023-03-20T01:54:19;11.70;99.90
7206;DHT22;3644;53.480;10.004;2023-03-20T01:56:50;11.50;99.90
7206;DHT22;3644;53.480;10.004;2023-03-20T01:59:21;11.40;99.90
7206;DHT22;3644;53.480;10.004;2023-03-20T02:01:48;11.60;99.90
7206;DHT22;3644;53.480;10.004;2023-03-20T02:04:14;11.60;99.90
7206;DHT22;3644;53.480;10.004;2023-03-20T02:06:41;11.60;99.90
7206;DHT22;3644;53.480;10.004;2023-03-20T02:09:09;11.60;99.90
7206;DHT22;3644;53.480;10.004;2023-03-20T02:11:36;11.70;99.90
7206;DHT22;3644;53.480;10.004;2023-03-20T02:14:03;11.70;99.90
7206;DHT22;3644;53.480;10.004;2023-03-20T02:16:29;11.60;99.90
7206;DHT22;3644;53.480;10.004;2023-03-20T02:18:55;11.60;99.90
7206;DHT22;3644;53.480;10.004;2023-03-20T02:24:14;11.60;99.90
7206;DHT22;3644;53.480;10.004;2023-03-20T02:29:51;11.60;99.90
7206;DHT22;3644;53.480;10.004;2023-03-20T02:33:05;11.40;99.90
7206;DHT22;3644;53.480;10.004;2023-03-20T02:49:52;11.50;99.90
7206;DHT22;3644;53.480;10.004;2023-03-20T02:52:29;11.40;99.90
7206;DHT22;3644;53.480;10.004;2023-03-20T02:55:09;11.30;99.90
7206;DHT22;3644;53.480;10.004;2023-03-20T03:00:40;11.40;99.90
7206;DHT22;3644;53.480;10.004;2023-03-20T03:03:17;11.40;99.90
7206;DHT22;3644;53.480;10.004;2023-03-20T03:05:53;11.30;99.90
7206;DHT22;3644;53.480;10.004;2023-03-20T03:08:22;11.30;99.90
7206;DHT22;3644;53.480;10.004;2023-03-20T03:10:54;11.40;99.90
7206;DHT22;3644;53.480;10.004;2023-03-20T03:13:26;11.40;99.90
7206;DHT22;3644;53.480;10.004;2023-03-20T03:15:55;11.40;99.90
7206;DHT22;3644;53.480;10.004;2023-03-20T03:18:27;11.20;99.90
7206;DHT22;3644;53.480;10.004;2023-03-20T03:20:56;11.00;99.90
7206;DHT22;3644;53.480;10.004;2023-03-20T03:23:35;11.10;99.90
7206;DHT22;3644;53.480;10.004;2023-03-20T03:26:05;11.20;99.90
7206;DHT22;3644;53.480;10.004;2023-03-20T03:28:45;11.20;99.90
7206;DHT22;3644;53.480;10.004;2023-03-20T03:31:14;11.10;99.90
7206;DHT22;3644;53.480;10.004;2023-03-20T03:33:44;11.10;99.90
7206;DHT22;3644;53.480;10.004;2023-03-20T03:36:50;11.20;99.90
7206;DHT22;3644;53.480;10.004;2023-03-20T03:39:31;11.30;99.90
7206;DHT22;3644;53.480;10.004;2023-03-20T03:42:11;11.20;99.90
7206;DHT22;3644;53.480;10.004;2023-03-20T03:47:45;11.20;99.90
7206;DHT22;3644;53.480;10.004;2023-03-20T03:50:25;11.30;99.90
7206;DHT22;3644;53.480;10.004;2023-03-20T03:52:53;11.10;99.90
7206;DHT22;3644;53.480;10.004;2023-03-20T03:55:25;11.10;99.90
7206;DHT22;3644;53.480;10.004;2023-03-20T03:58:13;11.10;99.90
7206;DHT22;3644;53.480;10.004;2023-03-20T04:00:41;11.10;99.90
7206;DHT22;3644;53.480;10.004;2023-03-20T04:03:10;11.20;99.90
7206;DHT22;3644;53.480;10.004;2023-03-20T04:05:40;11.20;99.90
7206;DHT22;3644;53.480;10.004;2023-03-20T04:08:07;11.30;99.90
7206;DHT22;3644;53.480;10.004;2023-03-20T04:10:33;11.30;99.90
7206;DHT22;3644;53.480;10.004;2023-03-20T04:12:58;11.30;99.90
7206;DHT22;3644;53.480;10.004;2023-03-20T04:15:24;11.40;99.90
7206;DHT22;3644;53.480;10.004;2023-03-20T04:17:52;11.30;99.90
7206;DHT22;3644;53.480;10.004;2023-03-20T04:20:17;11.30;99.90
7206;DHT22;3644;53.480;10.004;2023-03-20T04:22:43;11.30;99.90
7206;DHT22;3644;53.480;10.004;2023-03-20T04:25:13;11.30;99.90
7206;DHT22;3644;53.480;10.004;2023-03-20T04:27:39;11.40;99.90
7206;DHT22;3644;53.480;10.004;2023-03-20T04:30:05;11.40;99.90
7206;DHT22;3644;53.480;10.004;2023-03-20T04:32:31;11.40;99.90
7206;DHT22;3644;53.480;10.004;2023-03-20T04:34:56;11.30;99.90
7206;DHT22;3644;53.480;10.004;2023-03-20T04:37:22;11.10;99.90
7206;DHT22;3644;53.480;10.004;2023-03-20T04:39:47;11.00;99.90
7206;DHT22;3644;53.480;10.004;2023-03-20T04:42:13;10.90;99.90
7206;DHT22;3644;53.480;10.004;2023-03-20T04:44:38;10.90;99.90
7206;DHT22;3644;53.480;10.004;2023-03-20T04:47:04;10.90;99.90
7206;DHT22;3644;53.480;10.004;2023-03-20T04:49:29;10.90;99.90
7206;DHT22;3644;53.480;10.004;2023-03-20T04:51:55;10.90;99.90
7206;DHT22;3644;53.480;10.004;2023-03-20T04:54:21;10.90;99.90
7206;DHT22;3644;53.480;10.004;2023-03-20T04:56:46;10.90;99.90
7206;DHT22;3644;53.480;10.004;2023-03-20T04:59:12;10.90;99.90
7206;DHT22;3644;53.480;10.004;2023-03-20T05:01:37;10.80;99.90
7206;DHT22;3644;53.480;10.004;2023-03-20T05:04:03;10.90;99.90
7206;DHT22;3644;53.480;10.004;2023-03-20T05:06:29;10.90;99.90
7206;DHT22;3644;53.480;10.004;2023-03-20T05:08:58;10.80;99.90
7206;DHT22;3644;53.480;10.004;2023-03-20T05:11:25;10.90;99.90
7206;DHT22;3644;53.480;10.004;2023-03-20T05:13:51;10.90;99.90
7206;DHT22;3644;53.480;10.004;2023-03-20T05:16:17;10.90;99.90
7206;DHT22;3644;53.480;10.004;2023-03-20T05:18:42;10.90;99.90
7206;DHT22;3644;53.480;10.004;2023-03-20T05:21:08;10.90;99.90
7206;DHT22;3644;53.480;10.004;2023-03-20T05:23:34;10.90;99.90
7206;DHT22;3644;53.480;10.004;2023-03-20T05:25:59;10.90;99.90
7206;DHT22;3644;53.480;10.004;2023-03-20T05:28:26;10.90;99.90
7206;DHT22;3644;53.480;10.004;2023-03-20T05:30:51;10.90;99.90
7206;DHT22;3644;53.480;10.004;2023-03-20T05:33:17;11.00;99.90
7206;DHT22;3644;53.480;10.004;2023-03-20T05:35:42;10.80;99.90
7206;DHT22;3644;53.480;10.004;2023-03-20T05:38:08;10.90;99.90
7206;DHT22;3644;53.480;10.004;2023-03-20T05:40:33;10.80;99.90
7206;DHT22;3644;53.480;10.004;2023-03-20T05:42:59;10.70;99.90
7206;DHT22;3644;53.480;10.004;2023-03-20T05:45:24;10.70;99.90
7206;DHT22;3644;53.480;10.004;2023-03-20T05:47:50;10.60;99.90
7206;DHT22;3644;53.480;10.004;2023-03-20T05:50:15;10.50;99.90
7206;DHT22;3644;53.480;10.004;2023-03-20T05:52:41;10.50;99.90
7206;DHT22;3644;53.480;10.004;2023-03-20T05:55:07;10.50;99.90
7206;DHT22;3644;53.480;10.004;2023-03-20T05:57:32;10.60;99.90
7206;DHT22;3644;53.480;10.004;2023-03-20T05:59:58;10.60;99.90
7206;DHT22;3644;53.480;10.004;2023-03-20T06:02:23;10.60;99.90
7206;DHT22;3644;53.480;10.004;2023-03-20T06:04:49;10.60;99.90
7206;DHT22;3644;53.480;10.004;2023-03-20T06:07:14;10.70;99.90
7206;DHT22;3644;53.480;10.004;2023-03-20T06:09:40;10.70;99.90
7206;DHT22;3644;53.480;10.004;2023-03-20T06:12:06;10.60;99.90
7206;DHT22;3644;53.480;10.004;2023-03-20T06:14:32;10.60;99.90
7206;DHT22;3644;53.480;10.004;2023-03-20T06:16:57;10.60;99.90
7206;DHT22;3644;53.480;10.004;2023-03-20T06:19:23;10.60;99.90
7206;DHT22;3644;53.480;10.004;2023-03-20T06:21:49;10.80;99.90
7206;DHT22;3644;53.480;10.004;2023-03-20T06:24:15;10.80;99.90
7206;DHT22;3644;53.480;10.004;2023-03-20T06:26:41;10.90;99.90
7206;DHT22;3644;53.480;10.004;2023-03-20T06:29:06;10.90;99.90
7206;DHT22;3644;53.480;10.004;2023-03-20T06:31:32;10.90;99.90
7206;DHT22;3644;53.480;10.004;2023-03-20T06:33:57;10.80;99.90
7206;DHT22;3644;53.480;10.004;2023-03-20T06:36:23;10.80;99.90
7206;DHT22;3644;53.480;10.004;2023-03-20T06:38:49;10.80;99.90
7206;DHT22;3644;53.480;10.004;2023-03-20T06:41:15;10.90;99.90
7206;DHT22;3644;53.480;10.004;2023-03-20T06:43:40;10.80;99.90
7206;DHT22;3644;53.480;10.004;2023-03-20T06:46:07;11.00;99.90
7206;DHT22;3644;53.480;10.004;2023-03-20T06:48:33;11.00;99.90
7206;DHT22;3644;53.480;10.004;2023-03-20T06:51:01;10.90;99.90
7206;DHT22;3644;53.480;10.004;2023-03-20T06:53:27;11.00;99.90
7206;DHT22;3644;53.480;10.004;2023-03-20T06:55:52;11.00;99.90
7206;DHT22;3644;53.480;10.004;2023-03-20T06:58:19;11.10;99.90
7206;DHT22;3644;53.480;10.004;2023-03-20T07:00:44;11.00;99.90
7206;DHT22;3644;53.480;10.004;2023-03-20T07:03:10;11.10;99.90
7206;DHT22;3644;53.480;10.004;2023-03-20T07:05:38;11.00;99.90
7206;DHT22;3644;53.480;10.004;2023-03-20T07:08:04;11.00;99.90
7206;DHT22;3644;53.480;10.004;2023-03-20T07:10:31;11.30;99.90
7206;DHT22;3644;53.480;10.004;2023-03-20T07:12:57;11.30;99.90
7206;DHT22;3644;53.480;10.004;2023-03-20T07:15:22;11.50;99.90
7206;DHT22;3644;53.480;10.004;2023-03-20T07:17:49;11.50;99.90
7206;DHT22;3644;53.480;10.004;2023-03-20T07:20:14;11.50;99.90
7206;DHT22;3644;53.480;10.004;2023-03-20T07:22:40;11.50;99.90
7206;DHT22;3644;53.480;10.004;2023-03-20T07:25:07;11.50;99.90
7206;DHT22;3644;53.480;10.004;2023-03-20T07:27:34;11.60;99.90
7206;DHT22;3644;53.480;10.004;2023-03-20T07:29:59;11.50;99.90
7206;DHT22;3644;53.480;10.004;2023-03-20T07:32:25;11.40;99.90
7206;DHT22;3644;53.480;10.004;2023-03-20T07:34:51;11.30;99.90
7206;DHT22;3644;53.480;10.004;2023-03-20T07:37:16;11.30;99.90
7206;DHT22;3644;53.480;10.004;2023-03-20T07:39:42;11.40;99.90
7206;DHT22;3644;53.480;10.004;2023-03-20T07:42:07;11.40;99.90
7206;DHT22;3644;53.480;10.004;2023-03-20T07:44:33;11.40;99.90
7206;DHT22;3644;53.480;10.004;2023-03-20T07:46:58;11.40;99.90
7206;DHT22;3644;53.480;10.004;2023-03-20T07:49:24;11.40;99.90
7206;DHT22;3644;53.480;10.004;2023-03-20T07:51:50;11.50;99.90
7206;DHT22;3644;53.480;10.004;2023-03-20T07:54:16;11.40;99.90
7206;DHT22;3644;53.480;10.004;2023-03-20T07:56:41;11.40;99.90
7206;DHT22;3644;53.480;10.004;2023-03-20T07:59:07;11.50;99.90
7206;DHT22;3644;53.480;10.004;2023-03-20T08:01:33;11.40;99.90
7206;DHT22;3644;53.480;10.004;2023-03-20T08:03:58;11.50;99.90
7206;DHT22;3644;53.480;10.004;2023-03-20T08:06:24;11.60;99.90
7206;DHT22;3644;53.480;10.004;2023-03-20T08:08:50;11.60;99.90
7206;DHT22;3644;53.480;10.004;2023-03-20T08:11:17;11.60;99.90
7206;DHT22;3644;53.480;10.004;2023-03-20T08:13:43;11.60;99.90
7206;DHT22;3644;53.480;10.004;2023-03-20T08:16:08;11.70;99.90
7206;DHT22;3644;53.480;10.004;2023-03-20T08:18:34;11.50;99.90
7206;DHT22;3644;53.480;10.004;2023-03-20T08:21:00;11.50;99.90
7206;DHT22;3644;53.480;10.004;2023-03-20T08:23:26;11.70;99.90
7206;DHT22;3644;53.480;10.004;2023-03-20T08:25:52;11.80;99.90
7206;DHT22;3644;53.480;10.004;2023-03-20T08:28:19;11.70;99.90
7206;DHT22;3644;53.480;10.004;2023-03-20T08:30:44;11.70;99.90
7206;DHT22;3644;53.480;10.004;2023-03-20T08:33:11;11.60;99.90
7206;DHT22;3644;53.480;10.004;2023-03-20T08:35:37;11.60;99.90
7206;DHT22;3644;53.480;10.004;2023-03-20T08:38:03;11.60;99.90
7206;DHT22;3644;53.480;10.004;2023-03-20T08:40:28;11.70;99.90
7206;DHT22;3644;53.480;10.004;2023-03-20T08:42:54;11.80;99.90
7206;DHT22;3644;53.480;10.004;2023-03-20T08:45:20;11.70;99.90
7206;DHT22;3644;53.480;10.004;2023-03-20T08:47:48;11.70;99.90
7206;DHT22;3644;53.480;10.004;2023-03-20T08:50:15;11.70;99.90
7206;DHT22;3644;53.480;10.004;2023-03-20T08:52:40;11.60;99.90
7206;DHT22;3644;53.480;10.004;2023-03-20T08:55:09;11.60;99.90
7206;DHT22;3644;53.480;10.004;2023-03-20T08:57:35;11.40;99.90
7206;DHT22;3644;53.480;10.004;2023-03-20T09:00:03;11.50;99.90
7206;DHT22;3644;53.480;10.004;2023-03-20T09:02:29;11.60;99.90
7206;DHT22;3644;53.480;10.004;2023-03-20T09:04:54;11.70;99.90
7206;DHT22;3644;53.480;10.004;2023-03-20T09:07:20;11.70;99.90
7206;DHT22;3644;53.480;10.004;2023-03-20T09:09:46;11.80;99.90
7206;DHT22;3644;53.480;10.004;2023-03-20T09:12:12;11.90;99.90
7206;DHT22;3644;53.480;10.004;2023-03-20T09:14:37;11.60;99.90
7206;DHT22;3644;53.480;10.004;2023-03-20T09:17:04;11.80;99.90
7206;DHT22;3644;53.480;10.004;2023-03-20T09:19:30;11.80;99.90
7206;DHT22;3644;53.480;10.004;2023-03-20T09:21:55;11.90;99.90
7206;DHT22;3644;53.480;10.004;2023-03-20T09:24:21;11.80;99.90
7206;DHT22;3644;53.480;10.004;2023-03-20T09:26:46;11.80;99.90
7206;DHT22;3644;53.480;10.004;2023-03-20T09:29:12;11.80;99.90
7206;DHT22;3644;53.480;10.004;2023-03-20T09:31:37;11.80;99.90
7206;DHT22;3644;53.480;10.004;2023-03-20T09:34:03;11.80;99.90
7206;DHT22;3644;53.480;10.004;2023-03-20T09:36:28;11.80;99.90
7206;DHT22;3644;53.480;10.004;2023-03-20T09:38:54;11.80;99.90
7206;DHT22;3644;53.480;10.004;2023-03-20T09:41:22;11.80;99.90
7206;DHT22;3644;53.480;10.004;2023-03-20T09:44:14;11.80;99.90
7206;DHT22;3644;53.480;10.004;2023-03-20T09:47:13;11.80;99.90
7206;DHT22;3644;53.480;10.004;2023-03-20T09:52:51;11.80;99.90
7206;DHT22;3644;53.480;10.004;2023-03-20T09:55:20;11.90;99.90
7206;DHT22;3644;53.480;10.004;2023-03-20T09:57:57;11.90;99.90
7206;DHT22;3644;53.480;10.004;2023-03-20T10:00:25;12.00;99.90
7206;DHT22;3644;53.480;10.004;2023-03-20T10:03:00;12.10;99.90
7206;DHT22;3644;53.480;10.004;2023-03-20T10:05:38;12.30;99.90
7206;DHT22;3644;53.480;10.004;2023-03-20T10:08:11;12.20;99.90
7206;DHT22;3644;53.480;10.004;2023-03-20T10:16:30;12.20;99.90
7206;DHT22;3644;53.480;10.004;2023-03-20T10:19:21;12.40;99.90
7206;DHT22;3644;53.480;10.004;2023-03-20T10:22:23;12.40;99.90
7206;DHT22;3644;53.480;10.004;2023-03-20T10:24:59;12.40;99.90
7206;DHT22;3644;53.480;10.004;2023-03-20T10:27:36;12.40;99.90
7206;DHT22;3644;53.480;10.004;2023-03-20T10:32:59;12.30;99.90
7206;DHT22;3644;53.480;10.004;2023-03-20T10:38:20;12.30;99.90
7206;DHT22;3644;53.480;10.004;2023-03-20T10:40:49;12.30;99.90
7206;DHT22;3644;53.480;10.004;2023-03-20T10:43:28;12.40;99.90
7206;DHT22;3644;53.480;10.004;2023-03-20T10:48:48;12.50;99.90
7206;DHT22;3644;53.480;10.004;2023-03-20T10:51:17;12.50;99.90
7206;DHT22;3644;53.480;10.004;2023-03-20T10:54:01;12.50;99.90
7206;DHT22;3644;53.480;10.004;2023-03-20T10:56:35;12.40;99.90
7206;DHT22;3644;53.480;10.004;2023-03-20T11:01:46;12.70;99.90
7206;DHT22;3644;53.480;10.004;2023-03-20T11:04:11;12.60;99.90
7206;DHT22;3644;53.480;10.004;2023-03-20T11:06:45;12.70;99.90
7206;DHT22;3644;53.480;10.004;2023-03-20T11:09:20;12.60;99.90
7206;DHT22;3644;53.480;10.004;2023-03-20T11:11:47;12.70;99.90
7206;DHT22;3644;53.480;10.004;2023-03-20T11:14:18;12.80;99.90
7206;DHT22;3644;53.480;10.004;2023-03-20T11:16:49;12.80;99.90
7206;DHT22;3644;53.480;10.004;2023-03-20T11:19:18;12.90;99.90
7206;DHT22;3644;53.480;10.004;2023-03-20T11:21:50;13.10;99.90
7206;DHT22;3644;53.480;10.004;2023-03-20T11:24:23;13.00;99.90
7206;DHT22;3644;53.480;10.004;2023-03-20T11:26:50;12.70;99.90
7206;DHT22;3644;53.480;10.004;2023-03-20T11:29:28;12.70;99.90
7206;DHT22;3644;53.480;10.004;2023-03-20T11:31:54;12.70;99.90
7206;DHT22;3644;53.480;10.004;2023-03-20T11:34:23;12.70;99.90
7206;DHT22;3644;53.480;10.004;2023-03-20T11:36:59;12.70;99.90
7206;DHT22;3644;53.480;10.004;2023-03-20T11:39:29;12.90;99.90
7206;DHT22;3644;53.480;10.004;2023-03-20T11:42:01;13.00;99.90
7206;DHT22;3644;53.480;10.004;2023-03-20T11:44:29;13.10;99.90
7206;DHT22;3644;53.480;10.004;2023-03-20T11:46:58;13.10;99.90
7206;DHT22;3644;53.480;10.004;2023-03-20T11:49:26;13.20;99.90
7206;DHT22;3644;53.480;10.004;2023-03-20T11:51:59;13.10;99.90
7206;DHT22;3644;53.480;10.004;2023-03-20T11:54:26;13.10;99.90
7206;DHT22;3644;53.480;10.004;2023-03-20T11:56:54;13.10;99.90
7206;DHT22;3644;53.480;10.004;2023-03-20T11:59:21;13.20;99.90
7206;DHT22;3644;53.480;10.004;2023-03-20T12:01:50;13.10;99.90
7206;DHT22;3644;53.480;10.004;2023-03-20T12:04:18;13.20;99.90
7206;DHT22;3644;53.480;10.004;2023-03-20T12:06:48;13.20;99.90
7206;DHT22;3644;53.480;10.004;2023-03-20T12:09:32;13.00;99.90
7206;DHT22;3644;53.480;10.004;2023-03-20T12:12:18;13.20;99.90
7206;DHT22;3644;53.480;10.004;2023-03-20T12:17:41;13.20;99.90
7206;DHT22;3644;53.480;10.004;2023-03-20T12:20:22;13.00;99.90
7206;DHT22;3644;53.480;10.004;2023-03-20T12:25:47;13.10;99.90
7206;DHT22;3644;53.480;10.004;2023-03-20T12:28:36;13.20;99.90
7206;DHT22;3644;53.480;10.004;2023-03-20T12:31:23;13.30;99.90
7206;DHT22;3644;53.480;10.004;2023-03-20T12:34:06;13.50;99.90
7206;DHT22;3644;53.480;10.004;2023-03-20T12:36:41;13.50;99.90
7206;DHT22;3644;53.480;10.004;2023-03-20T12:39:19;13.40;99.90
7206;DHT22;3644;53.480;10.004;2023-03-20T12:44:55;13.60;99.90
7206;DHT22;3644;53.480;10.004;2023-03-20T12:50:09;13.80;99.90
7206;DHT22;3644;53.480;10.004;2023-03-20T12:52:48;13.80;99.90
7206;DHT22;3644;53.480;10.004;2023-03-20T12:55:33;13.80;99.90
7206;DHT22;3644;53.480;10.004;2023-03-20T12:58:03;13.90;99.90
7206;DHT22;3644;53.480;10.004;2023-03-20T13:00:47;13.90;99.90
7206;DHT22;3644;53.480;10.004;2023-03-20T13:09:14;14.10;99.90
7206;DHT22;3644;53.480;10.004;2023-03-20T13:14:30;14.20;99.90
7206;DHT22;3644;53.480;10.004;2023-03-20T13:19:59;14.50;99.90
7206;DHT22;3644;53.480;10.004;2023-03-20T13:22:36;14.40;99.90
7206;DHT22;3644;53.480;10.004;2023-03-20T13:25:30;14.30;99.90
7206;DHT22;3644;53.480;10.004;2023-03-20T13:28:16;14.20;99.90
7206;DHT22;3644;53.480;10.004;2023-03-20T13:36:02;14.00;99.90
7206;DHT22;3644;53.480;10.004;2023-03-20T13:38:37;13.90;99.90
7206;DHT22;3644;53.480;10.004;2023-03-20T13:41:06;13.70;99.90
7206;DHT22;3644;53.480;10.004;2023-03-20T13:43:47;13.50;99.90
7206;DHT22;3644;53.480;10.004;2023-03-20T13:46:21;13.60;99.90
7206;DHT22;3644;53.480;10.004;2023-03-20T13:48:50;13.80;99.90
7206;DHT22;3644;53.480;10.004;2023-03-20T13:51:35;13.70;99.90
7206;DHT22;3644;53.480;10.004;2023-03-20T13:54:36;13.60;99.90
7206;DHT22;3644;53.480;10.004;2023-03-20T13:57:21;13.60;99.90
7206;DHT22;3644;53.480;10.004;2023-03-20T14:05:18;13.70;99.90
7206;DHT22;3644;53.480;10.004;2023-03-20T14:07:46;13.80;99.90
7206;DHT22;3644;53.480;10.004;2023-03-20T14:13:12;13.70;99.90
7206;DHT22;3644;53.480;10.004;2023-03-20T14:15:45;13.60;99.90
7206;DHT22;3644;53.480;10.004;2023-03-20T14:18:16;13.60;99.90
7206;DHT22;3644;53.480;10.004;2023-03-20T14:20:43;13.60;99.90
7206;DHT22;3644;53.480;10.004;2023-03-20T14:23:17;13.70;99.90
7206;DHT22;3644;53.480;10.004;2023-03-20T14:25:46;13.70;99.90
7206;DHT22;3644;53.480;10.004;2023-03-20T14:30:45;13.60;99.90
7206;DHT22;3644;53.480;10.004;2023-03-20T14:35:41;13.50;99.90
7206;DHT22;3644;53.480;10.004;2023-03-20T14:38:19;13.30;99.90
7206;DHT22;3644;53.480;10.004;2023-03-20T14:49:28;13.70;99.90
7206;DHT22;3644;53.480;10.004;2023-03-20T14:51:59;13.70;99.90
7206;DHT22;3644;53.480;10.004;2023-03-20T14:54:29;13.60;99.90
7206;DHT22;3644;53.480;10.004;2023-03-20T14:57:08;13.40;99.90
7206;DHT22;3644;53.480;10.004;2023-03-20T14:59:34;13.30;99.90
7206;DHT22;3644;53.480;10.004;2023-03-20T15:02:01;13.40;99.90
7206;DHT22;3644;53.480;10.004;2023-03-20T15:04:33;13.40;99.90
7206;DHT22;3644;53.480;10.004;2023-03-20T15:07:03;13.20;99.90
7206;DHT22;3644;53.480;10.004;2023-03-20T15:09:33;13.20;99.90
7206;DHT22;3644;53.480;10.004;2023-03-20T15:12:00;13.20;99.90
7206;DHT22;3644;53.480;10.004;2023-03-20T15:14:42;13.20;99.90
7206;DHT22;3644;53.480;10.004;2023-03-20T15:17:17;13.10;99.90
7206;DHT22;3644;53.480;10.004;2023-03-20T15:19:43;13.00;99.90
7206;DHT22;3644;53.480;10.004;2023-03-20T15:22:17;13.10;99.90
7206;DHT22;3644;53.480;10.004;2023-03-20T15:24:51;13.20;99.90
7206;DHT22;3644;53.480;10.004;2023-03-20T15:27:17;13.30;99.90
7206;DHT22;3644;53.480;10.004;2023-03-20T15:29:49;13.30;99.90
7206;DHT22;3644;53.480;10.004;2023-03-20T15:32:16;13.30;99.90
7206;DHT22;3644;53.480;10.004;2023-03-20T15:34:42;13.30;99.90
7206;DHT22;3644;53.480;10.004;2023-03-20T15:37:13;13.20;99.90
7206;DHT22;3644;53.480;10.004;2023-03-20T15:39:45;13.10;99.90
7206;DHT22;3644;53.480;10.004;2023-03-20T15:42:16;13.10;99.90
7206;DHT22;3644;53.480;10.004;2023-03-20T15:44:45;13.10;99.90
7206;DHT22;3644;53.480;10.004;2023-03-20T15:47:17;13.20;99.90
7206;DHT22;3644;53.480;10.004;2023-03-20T15:49:51;13.10;99.90
7206;DHT22;3644;53.480;10.004;2023-03-20T15:54:57;13.20;99.90
7206;DHT22;3644;53.480;10.004;2023-03-20T15:57:33;13.20;99.90
7206;DHT22;3644;53.480;10.004;2023-03-20T15:59:59;13.30;99.90
7206;DHT22;3644;53.480;10.004;2023-03-20T16:02:25;13.40;99.90
7206;DHT22;3644;53.480;10.004;2023-03-20T16:04:53;13.40;99.90
7206;DHT22;3644;53.480;10.004;2023-03-20T16:07:25;13.10;99.90
7206;DHT22;3644;53.480;10.004;2023-03-20T16:09:50;13.10;99.90
7206;DHT22;3644;53.480;10.004;2023-03-20T16:12:17;13.20;99.90
7206;DHT22;3644;53.480;10.004;2023-03-20T16:14:45;13.10;99.90
7206;DHT22;3644;53.480;10.004;2023-03-20T16:17:12;12.90;99.90
7206;DHT22;3644;53.480;10.004;2023-03-20T16:19:38;12.80;99.90
7206;DHT22;3644;53.480;10.004;2023-03-20T16:22:18;12.90;99.90
7206;DHT22;3644;53.480;10.004;2023-03-20T16:24:48;12.90;99.90
7206;DHT22;3644;53.480;10.004;2023-03-20T16:27:21;13.00;99.90
7206;DHT22;3644;53.480;10.004;2023-03-20T16:29:50;13.10;99.90
7206;DHT22;3644;53.480;10.004;2023-03-20T16:32:32;13.10;99.90
7206;DHT22;3644;53.480;10.004;2023-03-20T16:34:58;13.10;99.90
7206;DHT22;3644;53.480;10.004;2023-03-20T16:37:29;13.10;99.90
7206;DHT22;3644;53.480;10.004;2023-03-20T16:42:45;13.20;99.90
7206;DHT22;3644;53.480;10.004;2023-03-20T16:45:23;13.20;99.90
7206;DHT22;3644;53.480;10.004;2023-03-20T16:47:49;13.20;99.90
7206;DHT22;3644;53.480;10.004;2023-03-20T16:50:20;13.10;99.90
7206;DHT22;3644;53.480;10.004;2023-03-20T16:52:54;13.20;99.90
7206;DHT22;3644;53.480;10.004;2023-03-20T16:55:28;13.10;99.90
7206;DHT22;3644;53.480;10.004;2023-03-20T16:57:58;12.90;99.90
7206;DHT22;3644;53.480;10.004;2023-03-20T17:01:01;12.70;99.90
7206;DHT22;3644;53.480;10.004;2023-03-20T17:03:50;12.60;99.90
7206;DHT22;3644;53.480;10.004;2023-03-20T17:08:53;12.80;99.90
7206;DHT22;3644;53.480;10.004;2023-03-20T17:13:51;12.60;99.90
7206;DHT22;3644;53.480;10.004;2023-03-20T17:16:19;12.60;99.90
7206;DHT22;3644;53.480;10.004;2023-03-20T17:18:45;12.70;99.90
7206;DHT22;3644;53.480;10.004;2023-03-20T17:21:12;12.80;99.90
7206;DHT22;3644;53.480;10.004;2023-03-20T17:23:38;12.70;99.90
7206;DHT22;3644;53.480;10.004;2023-03-20T17:26:04;12.60;99.90
7206;DHT22;3644;53.480;10.004;2023-03-20T17:28:33;12.60;99.90
7206;DHT22;3644;53.480;10.004;2023-03-20T17:30:59;12.70;99.90
7206;DHT22;3644;53.480;10.004;2023-03-20T17:33:32;12.60;99.90
7206;DHT22;3644;53.480;10.004;2023-03-20T17:35:58;12.50;99.90
7206;DHT22;3644;53.480;10.004;2023-03-20T17:38:25;12.60;99.90
7206;DHT22;3644;53.480;10.004;2023-03-20T17:40:52;12.60;99.90
7206;DHT22;3644;53.480;10.004;2023-03-20T17:43:18;12.50;99.90
7206;DHT22;3644;53.480;10.004;2023-03-20T17:45:45;12.40;99.90
7206;DHT22;3644;53.480;10.004;2023-03-20T17:48:19;12.30;99.90
7206;DHT22;3644;53.480;10.004;2023-03-20T17:50:46;12.30;99.90